sensor_id;sensor_type;location;lat;lon;timestamp;P1;durP1;ratioP1;P2;durP2;ratioP2
21089;SDS011;10703;51.020;6.128;2023-04-19T00:00:41;20.07;;;15.53;;
21089;SDS011;10703;51.020;6.128;2023-04-19T00:03:09;20.60;;;17.37;;
21089;SDS011;10703;51.020;6.128;2023-04-19T00:05:36;17.83;;;15.67;;
21089;SDS011;10703;51.020;6.128;2023-04-19T00:08:06;17.67;;;15.60;;
21089;SDS011;10703;51.020;6.128;2023-04-19T00:10:33;21.13;;;16.10;;
21089;SDS011;10703;51.020;6.128;2023-04-19T00:13:05;19.77;;;16.87;;
21089;SDS011;10703;51.020;6.128;2023-04-19T00:15:31;20.27;;;16.70;;
21089;SDS011;10703;51.020;6.128;2023-04-19T00:18:00;20.30;;;16.27;;
21089;SDS011;10703;51.020;6.128;2023-04-19T00:20:26;19.33;;;17.27;;
21089;SDS011;10703;51.020;6.128;2023-04-19T00:22:53;20.67;;;18.03;;
21089;SDS011;10703;51.020;6.128;2023-04-19T00:25:19;22.23;;;17.60;;
21089;SDS011;10703;51.020;6.128;2023-04-19T00:27:46;20.57;;;16.20;;
21089;SDS011;10703;51.020;6.128;2023-04-19T00:30:12;21.50;;;17.90;;
21089;SDS011;10703;51.020;6.128;2023-04-19T00:32:39;21.47;;;17.90;;
21089;SDS011;10703;51.020;6.128;2023-04-19T00:35:06;21.97;;;17.10;;
21089;SDS011;10703;51.020;6.128;2023-04-19T00:37:33;20.77;;;17.83;;
21089;SDS011;10703;51.020;6.128;2023-04-19T00:39:59;21.80;;;17.73;;
21089;SDS011;10703;51.020;6.128;2023-04-19T00:42:26;19.83;;;17.73;;
21089;SDS011;10703;51.020;6.128;2023-04-19T00:44:53;21.67;;;17.30;;
21089;SDS011;10703;51.020;6.128;2023-04-19T00:47:19;22.37;;;17.23;;
21089;SDS011;10703;51.020;6.128;2023-04-19T00:49:46;19.20;;;16.70;;
21089;SDS011;10703;51.020;6.128;2023-04-19T00:52:13;21.23;;;17.37;;
21089;SDS011;10703;51.020;6.128;2023-04-19T00:54:39;19.37;;;17.03;;
21089;SDS011;10703;51.020;6.128;2023-04-19T00:57:08;20.60;;;17.60;;
21089;SDS011;10703;51.020;6.128;2023-04-19T00:59:34;23.63;;;17.80;;
21089;SDS011;10703;51.020;6.128;2023-04-19T01:02:01;22.63;;;18.07;;
21089;SDS011;10703;51.020;6.128;2023-04-19T01:04:27;23.33;;;17.50;;
21089;SDS011;10703;51.020;6.128;2023-04-19T01:06:55;22.07;;;18.30;;
21089;SDS011;10703;51.020;6.128;2023-04-19T01:09:22;21.97;;;17.50;;
21089;SDS011;10703;51.020;6.128;2023-04-19T01:11:49;21.37;;;17.60;;
21089;SDS011;10703;51.020;6.128;2023-04-19T01:14:15;21.83;;;18.07;;
21089;SDS011;10703;51.020;6.128;2023-04-19T01:16:42;22.27;;;18.20;;
21089;SDS011;10703;51.020;6.128;2023-04-19T01:19:10;26.00;;;18.27;;
21089;SDS011;10703;51.020;6.128;2023-04-19T01:21:37;21.03;;;17.27;;
21089;SDS011;10703;51.020;6.128;2023-04-19T01:24:05;20.00;;;17.90;;
21089;SDS011;10703;51.020;6.128;2023-04-19T01:26:32;21.70;;;17.53;;
21089;SDS011;10703;51.020;6.128;2023-04-19T01:28:58;21.53;;;18.13;;
21089;SDS011;10703;51.020;6.128;2023-04-19T01:31:25;22.33;;;18.67;;
21089;SDS011;10703;51.020;6.128;2023-04-19T01:33:51;22.43;;;18.33;;
21089;SDS011;10703;51.020;6.128;2023-04-19T01:36:18;26.53;;;18.83;;
21089;SDS011;10703;51.020;6.128;2023-04-19T01:38:45;22.63;;;18.20;;
21089;SDS011;10703;51.020;6.128;2023-04-19T01:41:12;22.20;;;18.17;;
21089;SDS011;10703;51.020;6.128;2023-04-19T01:43:39;22.63;;;18.43;;
21089;SDS011;10703;51.020;6.128;2023-04-19T01:46:06;22.43;;;17.67;;
21089;SDS011;10703;51.020;6.128;2023-04-19T01:48:32;20.07;;;17.60;;
21089;SDS011;10703;51.020;6.128;2023-04-19T01:50:59;23.80;;;17.63;;
21089;SDS011;10703;51.020;6.128;2023-04-19T01:53:25;24.50;;;18.07;;
21089;SDS011;10703;51.020;6.128;2023-04-19T01:55:52;21.37;;;17.80;;
21089;SDS011;10703;51.020;6.128;2023-04-19T01:58:18;26.20;;;18.20;;
21089;SDS011;10703;51.020;6.128;2023-04-19T02:00:45;24.37;;;18.20;;
21089;SDS011;10703;51.020;6.128;2023-04-19T02:03:12;22.40;;;17.97;;
21089;SDS011;10703;51.020;6.128;2023-04-19T02:05:39;21.17;;;18.13;;
21089;SDS011;10703;51.020;6.128;2023-04-19T02:08:06;20.97;;;17.80;;
21089;SDS011;10703;51.020;6.128;2023-04-19T02:10:32;22.07;;;18.67;;
21089;SDS011;10703;51.020;6.128;2023-04-19T02:12:59;24.47;;;19.03;;
21089;SDS011;10703;51.020;6.128;2023-04-19T02:15:25;23.33;;;19.07;;
21089;SDS011;10703;51.020;6.128;2023-04-19T02:17:52;25.97;;;19.60;;
21089;SDS011;10703;51.020;6.128;2023-04-19T02:20:19;24.50;;;18.73;;
21089;SDS011;10703;51.020;6.128;2023-04-19T02:22:45;27.03;;;20.10;;
21089;SDS011;10703;51.020;6.128;2023-04-19T02:25:12;26.03;;;20.53;;
21089;SDS011;10703;51.020;6.128;2023-04-19T02:27:40;27.63;;;20.43;;
21089;SDS011;10703;51.020;6.128;2023-04-19T02:30:07;32.97;;;22.63;;
21089;SDS011;10703;51.020;6.128;2023-04-19T02:32:34;31.63;;;23.23;;
21089;SDS011;10703;51.020;6.128;2023-04-19T02:35:01;28.97;;;23.63;;
21089;SDS011;10703;51.020;6.128;2023-04-19T02:37:28;31.00;;;23.50;;
21089;SDS011;10703;51.020;6.128;2023-04-19T02:39:54;34.03;;;24.27;;
21089;SDS011;10703;51.020;6.128;2023-04-19T02:42:21;35.07;;;24.20;;
21089;SDS011;10703;51.020;6.128;2023-04-19T02:44:48;34.40;;;24.33;;
21089;SDS011;10703;51.020;6.128;2023-04-19T02:47:14;37.17;;;25.17;;
21089;SDS011;10703;51.020;6.128;2023-04-19T02:49:41;31.20;;;23.67;;
21089;SDS011;10703;51.020;6.128;2023-04-19T02:52:07;32.20;;;22.37;;
21089;SDS011;10703;51.020;6.128;2023-04-19T02:54:34;34.43;;;23.20;;
21089;SDS011;10703;51.020;6.128;2023-04-19T02:57:00;38.07;;;23.97;;
21089;SDS011;10703;51.020;6.128;2023-04-19T02:59:27;32.43;;;22.47;;
21089;SDS011;10703;51.020;6.128;2023-04-19T03:01:53;33.33;;;23.70;;
21089;SDS011;10703;51.020;6.128;2023-04-19T03:04:20;35.93;;;25.33;;
21089;SDS011;10703;51.020;6.128;2023-04-19T03:06:47;37.70;;;24.90;;
21089;SDS011;10703;51.020;6.128;2023-04-19T03:09:13;34.80;;;25.60;;
21089;SDS011;10703;51.020;6.128;2023-04-19T03:11:40;37.60;;;25.27;;
21089;SDS011;10703;51.020;6.128;2023-04-19T03:14:06;38.93;;;26.63;;
21089;SDS011;10703;51.020;6.128;2023-04-19T03:16:33;41.90;;;26.30;;
21089;SDS011;10703;51.020;6.128;2023-04-19T03:18:59;31.87;;;24.03;;
21089;SDS011;10703;51.020;6.128;2023-04-19T03:21:26;36.40;;;24.23;;
21089;SDS011;10703;51.020;6.128;2023-04-19T03:23:54;35.07;;;24.73;;
21089;SDS011;10703;51.020;6.128;2023-04-19T03:26:21;37.00;;;24.27;;
21089;SDS011;10703;51.020;6.128;2023-04-19T03:28:47;34.87;;;24.97;;
21089;SDS011;10703;51.020;6.128;2023-04-19T03:31:14;37.67;;;26.03;;
21089;SDS011;10703;51.020;6.128;2023-04-19T03:33:40;35.63;;;25.07;;
21089;SDS011;10703;51.020;6.128;2023-04-19T03:36:07;38.50;;;27.07;;
21089;SDS011;10703;51.020;6.128;2023-04-19T03:38:35;41.43;;;27.50;;
21089;SDS011;10703;51.020;6.128;2023-04-19T03:41:02;35.00;;;26.13;;
21089;SDS011;10703;51.020;6.128;2023-04-19T03:43:28;33.07;;;25.27;;
21089;SDS011;10703;51.020;6.128;2023-04-19T03:45:55;33.67;;;25.07;;
21089;SDS011;10703;51.020;6.128;2023-04-19T03:48:21;33.57;;;24.97;;
21089;SDS011;10703;51.020;6.128;2023-04-19T03:50:48;34.37;;;23.80;;
21089;SDS011;10703;51.020;6.128;2023-04-19T03:53:14;32.63;;;23.60;;
21089;SDS011;10703;51.020;6.128;2023-04-19T03:55:43;30.60;;;23.77;;
21089;SDS011;10703;51.020;6.128;2023-04-19T03:58:10;30.93;;;23.37;;
21089;SDS011;10703;51.020;6.128;2023-04-19T04:00:37;30.57;;;23.53;;
21089;SDS011;10703;51.020;6.128;2023-04-19T04:03:04;26.03;;;22.43;;
21089;SDS011;10703;51.020;6.128;2023-04-19T04:05:30;26.87;;;20.50;;
21089;SDS011;10703;51.020;6.128;2023-04-19T04:07:57;28.80;;;21.50;;
21089;SDS011;10703;51.020;6.128;2023-04-19T04:10:24;25.40;;;20.77;;
21089;SDS011;10703;51.020;6.128;2023-04-19T04:12:50;28.33;;;20.53;;
21089;SDS011;10703;51.020;6.128;2023-04-19T04:15:17;28.00;;;19.93;;
21089;SDS011;10703;51.020;6.128;2023-04-19T04:17:44;26.70;;;20.97;;
21089;SDS011;10703;51.020;6.128;2023-04-19T04:20:10;26.83;;;19.13;;
21089;SDS011;10703;51.020;6.128;2023-04-19T04:22:41;31.27;;;21.83;;
21089;SDS011;10703;51.020;6.128;2023-04-19T04:25:09;26.73;;;20.33;;
21089;SDS011;10703;51.020;6.128;2023-04-19T04:27:35;26.20;;;20.97;;
21089;SDS011;10703;51.020;6.128;2023-04-19T04:30:02;26.30;;;20.23;;
21089;SDS011;10703;51.020;6.128;2023-04-19T04:32:29;25.37;;;19.97;;
21089;SDS011;10703;51.020;6.128;2023-04-19T04:35:01;26.77;;;19.43;;
21089;SDS011;10703;51.020;6.128;2023-04-19T04:37:28;26.63;;;18.97;;
21089;SDS011;10703;51.020;6.128;2023-04-19T04:39:59;25.77;;;19.27;;
21089;SDS011;10703;51.020;6.128;2023-04-19T04:42:26;24.40;;;18.83;;
21089;SDS011;10703;51.020;6.128;2023-04-19T04:44:53;27.17;;;19.60;;
21089;SDS011;10703;51.020;6.128;2023-04-19T04:47:23;29.30;;;19.10;;
21089;SDS011;10703;51.020;6.128;2023-04-19T04:49:49;26.10;;;19.03;;
21089;SDS011;10703;51.020;6.128;2023-04-19T04:52:17;28.07;;;20.40;;
21089;SDS011;10703;51.020;6.128;2023-04-19T04:54:44;29.30;;;20.43;;
21089;SDS011;10703;51.020;6.128;2023-04-19T04:57:10;28.60;;;19.77;;
21089;SDS011;10703;51.020;6.128;2023-04-19T04:59:37;28.40;;;20.23;;
21089;SDS011;10703;51.020;6.128;2023-04-19T05:02:03;29.77;;;20.77;;
21089;SDS011;10703;51.020;6.128;2023-04-19T05:04:30;28.67;;;20.27;;
21089;SDS011;10703;51.020;6.128;2023-04-19T05:06:57;23.57;;;19.90;;
21089;SDS011;10703;51.020;6.128;2023-04-19T05:09:23;28.97;;;20.60;;
21089;SDS011;10703;51.020;6.128;2023-04-19T05:11:50;27.07;;;19.20;;
21089;SDS011;10703;51.020;6.128;2023-04-19T05:14:16;28.47;;;20.10;;
21089;SDS011;10703;51.020;6.128;2023-04-19T05:16:43;29.27;;;20.53;;
21089;SDS011;10703;51.020;6.128;2023-04-19T05:19:10;26.53;;;20.10;;
21089;SDS011;10703;51.020;6.128;2023-04-19T05:21:36;28.27;;;19.60;;
21089;SDS011;10703;51.020;6.128;2023-04-19T05:24:03;25.13;;;18.90;;
21089;SDS011;10703;51.020;6.128;2023-04-19T05:26:30;23.03;;;17.73;;
21089;SDS011;10703;51.020;6.128;2023-04-19T05:28:57;25.03;;;18.00;;
21089;SDS011;10703;51.020;6.128;2023-04-19T05:31:24;21.17;;;15.80;;
21089;SDS011;10703;51.020;6.128;2023-04-19T05:33:51;23.70;;;17.23;;
21089;SDS011;10703;51.020;6.128;2023-04-19T05:36:17;22.33;;;15.60;;
21089;SDS011;10703;51.020;6.128;2023-04-19T05:38:44;22.50;;;16.17;;
21089;SDS011;10703;51.020;6.128;2023-04-19T05:41:10;22.43;;;16.27;;
21089;SDS011;10703;51.020;6.128;2023-04-19T05:43:37;19.83;;;15.20;;
21089;SDS011;10703;51.020;6.128;2023-04-19T05:46:03;19.13;;;15.40;;
21089;SDS011;10703;51.020;6.128;2023-04-19T05:48:30;20.00;;;15.27;;
21089;SDS011;10703;51.020;6.128;2023-04-19T05:50:57;18.33;;;14.77;;
21089;SDS011;10703;51.020;6.128;2023-04-19T05:53:24;14.67;;;13.07;;
21089;SDS011;10703;51.020;6.128;2023-04-19T05:55:51;18.30;;;13.63;;
21089;SDS011;10703;51.020;6.128;2023-04-19T05:58:17;17.97;;;13.63;;
21089;SDS011;10703;51.020;6.128;2023-04-19T06:00:44;18.97;;;13.33;;
21089;SDS011;10703;51.020;6.128;2023-04-19T06:03:11;19.47;;;13.90;;
21089;SDS011;10703;51.020;6.128;2023-04-19T06:05:38;18.03;;;12.80;;
21089;SDS011;10703;51.020;6.128;2023-04-19T06:08:05;20.97;;;12.87;;
21089;SDS011;10703;51.020;6.128;2023-04-19T06:10:35;15.33;;;12.30;;
21089;SDS011;10703;51.020;6.128;2023-04-19T06:13:19;13.97;;;11.37;;
21089;SDS011;10703;51.020;6.128;2023-04-19T06:15:46;17.27;;;12.30;;
21089;SDS011;10703;51.020;6.128;2023-04-19T06:18:13;14.50;;;11.93;;
21089;SDS011;10703;51.020;6.128;2023-04-19T06:20:44;15.73;;;11.20;;
21089;SDS011;10703;51.020;6.128;2023-04-19T06:23:11;12.83;;;10.70;;
21089;SDS011;10703;51.020;6.128;2023-04-19T06:25:39;11.30;;;10.10;;
21089;SDS011;10703;51.020;6.128;2023-04-19T06:28:06;11.50;;;10.17;;
21089;SDS011;10703;51.020;6.128;2023-04-19T06:30:32;11.20;;;9.83;;
21089;SDS011;10703;51.020;6.128;2023-04-19T06:32:59;11.57;;;9.77;;
21089;SDS011;10703;51.020;6.128;2023-04-19T06:35:26;14.53;;;9.23;;
21089;SDS011;10703;51.020;6.128;2023-04-19T06:37:52;13.10;;;9.37;;
21089;SDS011;10703;51.020;6.128;2023-04-19T06:40:19;12.50;;;9.00;;
21089;SDS011;10703;51.020;6.128;2023-04-19T06:42:46;11.73;;;9.30;;
21089;SDS011;10703;51.020;6.128;2023-04-19T06:45:12;13.00;;;9.43;;
21089;SDS011;10703;51.020;6.128;2023-04-19T06:47:41;11.60;;;9.40;;
21089;SDS011;10703;51.020;6.128;2023-04-19T06:50:07;12.37;;;8.77;;
21089;SDS011;10703;51.020;6.128;2023-04-19T06:52:35;12.40;;;9.07;;
21089;SDS011;10703;51.020;6.128;2023-04-19T06:55:02;13.90;;;9.07;;
21089;SDS011;10703;51.020;6.128;2023-04-19T06:57:29;9.33;;;8.37;;
21089;SDS011;10703;51.020;6.128;2023-04-19T06:59:56;11.00;;;8.20;;
21089;SDS011;10703;51.020;6.128;2023-04-19T07:02:23;9.87;;;7.67;;
21089;SDS011;10703;51.020;6.128;2023-04-19T07:04:50;11.77;;;8.50;;
21089;SDS011;10703;51.020;6.128;2023-04-19T07:07:17;9.73;;;8.53;;
21089;SDS011;10703;51.020;6.128;2023-04-19T07:09:43;9.17;;;7.90;;
21089;SDS011;10703;51.020;6.128;2023-04-19T07:12:10;9.37;;;7.37;;
21089;SDS011;10703;51.020;6.128;2023-04-19T07:14:37;8.67;;;7.77;;
21089;SDS011;10703;51.020;6.128;2023-04-19T07:17:03;11.80;;;7.30;;
21089;SDS011;10703;51.020;6.128;2023-04-19T07:19:31;8.53;;;6.93;;
21089;SDS011;10703;51.020;6.128;2023-04-19T07:21:58;8.23;;;7.40;;
21089;SDS011;10703;51.020;6.128;2023-04-19T07:24:24;10.97;;;7.60;;
21089;SDS011;10703;51.020;6.128;2023-04-19T07:26:52;10.00;;;6.90;;
21089;SDS011;10703;51.020;6.128;2023-04-19T07:29:19;7.27;;;6.27;;
21089;SDS011;10703;51.020;6.128;2023-04-19T07:31:46;8.30;;;6.83;;
21089;SDS011;10703;51.020;6.128;2023-04-19T07:34:12;8.03;;;6.97;;
21089;SDS011;10703;51.020;6.128;2023-04-19T07:36:39;7.80;;;7.00;;
21089;SDS011;10703;51.020;6.128;2023-04-19T07:39:06;8.37;;;6.03;;
21089;SDS011;10703;51.020;6.128;2023-04-19T07:41:33;6.95;;;5.95;;
21089;SDS011;10703;51.020;6.128;2023-04-19T07:44:01;8.23;;;6.20;;
21089;SDS011;10703;51.020;6.128;2023-04-19T07:46:28;11.38;;;6.40;;
21089;SDS011;10703;51.020;6.128;2023-04-19T07:48:55;8.25;;;6.03;;
21089;SDS011;10703;51.020;6.128;2023-04-19T07:51:21;14.85;;;6.47;;
21089;SDS011;10703;51.020;6.128;2023-04-19T07:53:49;8.77;;;5.78;;
21089;SDS011;10703;51.020;6.128;2023-04-19T07:56:16;6.93;;;6.10;;
21089;SDS011;10703;51.020;6.128;2023-04-19T07:58:44;7.85;;;6.20;;
21089;SDS011;10703;51.020;6.128;2023-04-19T08:01:18;7.25;;;5.93;;
21089;SDS011;10703;51.020;6.128;2023-04-19T08:03:46;10.50;;;6.82;;
21089;SDS011;10703;51.020;6.128;2023-04-19T08:06:13;8.23;;;6.25;;
21089;SDS011;10703;51.020;6.128;2023-04-19T08:08:41;12.93;;;6.93;;
21089;SDS011;10703;51.020;6.128;2023-04-19T08:11:07;9.40;;;6.50;;
21089;SDS011;10703;51.020;6.128;2023-04-19T08:13:34;7.50;;;6.60;;
21089;SDS011;10703;51.020;6.128;2023-04-19T08:16:01;6.93;;;6.30;;
21089;SDS011;10703;51.020;6.128;2023-04-19T08:18:30;9.40;;;6.45;;
21089;SDS011;10703;51.020;6.128;2023-04-19T08:20:58;8.93;;;6.10;;
21089;SDS011;10703;51.020;6.128;2023-04-19T08:23:24;10.27;;;6.55;;
21089;SDS011;10703;51.020;6.128;2023-04-19T08:26:06;8.52;;;6.78;;
21089;SDS011;10703;51.020;6.128;2023-04-19T08:28:33;9.05;;;6.80;;
21089;SDS011;10703;51.020;6.128;2023-04-19T08:30:59;8.52;;;6.90;;
21089;SDS011;10703;51.020;6.128;2023-04-19T08:33:27;11.27;;;7.43;;
21089;SDS011;10703;51.020;6.128;2023-04-19T08:35:53;12.43;;;7.63;;
21089;SDS011;10703;51.020;6.128;2023-04-19T08:38:20;9.55;;;6.85;;
21089;SDS011;10703;51.020;6.128;2023-04-19T08:40:48;9.43;;;6.68;;
21089;SDS011;10703;51.020;6.128;2023-04-19T08:43:18;8.20;;;6.78;;
21089;SDS011;10703;51.020;6.128;2023-04-19T08:45:45;9.70;;;6.60;;
21089;SDS011;10703;51.020;6.128;2023-04-19T08:48:16;9.70;;;6.43;;
21089;SDS011;10703;51.020;6.128;2023-04-19T08:50:43;9.77;;;7.25;;
21089;SDS011;10703;51.020;6.128;2023-04-19T08:53:30;7.63;;;6.85;;
21089;SDS011;10703;51.020;6.128;2023-04-19T08:55:59;7.50;;;6.43;;
21089;SDS011;10703;51.020;6.128;2023-04-19T08:58:29;9.75;;;7.03;;
21089;SDS011;10703;51.020;6.128;2023-04-19T09:01:02;10.27;;;6.80;;
21089;SDS011;10703;51.020;6.128;2023-04-19T09:03:30;10.38;;;6.80;;
21089;SDS011;10703;51.020;6.128;2023-04-19T09:06:09;12.75;;;6.35;;
21089;SDS011;10703;51.020;6.128;2023-04-19T09:08:38;9.43;;;6.80;;
21089;SDS011;10703;51.020;6.128;2023-04-19T09:11:06;8.43;;;6.60;;
21089;SDS011;10703;51.020;6.128;2023-04-19T09:13:32;9.18;;;6.75;;
21089;SDS011;10703;51.020;6.128;2023-04-19T09:16:03;12.07;;;6.07;;
21089;SDS011;10703;51.020;6.128;2023-04-19T09:18:30;8.88;;;6.47;;
21089;SDS011;10703;51.020;6.128;2023-04-19T09:21:03;8.85;;;6.00;;
21089;SDS011;10703;51.020;6.128;2023-04-19T09:23:30;6.10;;;5.50;;
21089;SDS011;10703;51.020;6.128;2023-04-19T09:25:58;9.98;;;6.18;;
21089;SDS011;10703;51.020;6.128;2023-04-19T09:29:01;9.35;;;5.82;;
21089;SDS011;10703;51.020;6.128;2023-04-19T09:31:32;9.55;;;5.30;;
21089;SDS011;10703;51.020;6.128;2023-04-19T09:34:17;13.18;;;6.45;;
21089;SDS011;10703;51.020;6.128;2023-04-19T09:36:45;13.07;;;5.45;;
21089;SDS011;10703;51.020;6.128;2023-04-19T09:39:29;8.82;;;5.35;;
21089;SDS011;10703;51.020;6.128;2023-04-19T09:41:58;7.13;;;5.68;;
21089;SDS011;10703;51.020;6.128;2023-04-19T09:44:25;8.00;;;5.25;;
21089;SDS011;10703;51.020;6.128;2023-04-19T09:46:56;8.32;;;5.53;;
21089;SDS011;10703;51.020;6.128;2023-04-19T09:49:23;6.93;;;5.38;;
21089;SDS011;10703;51.020;6.128;2023-04-19T09:52:10;6.82;;;5.38;;
21089;SDS011;10703;51.020;6.128;2023-04-19T09:54:39;10.57;;;5.32;;
21089;SDS011;10703;51.020;6.128;2023-04-19T09:57:06;12.20;;;5.20;;
21089;SDS011;10703;51.020;6.128;2023-04-19T09:59:33;8.00;;;5.35;;
21089;SDS011;10703;51.020;6.128;2023-04-19T10:02:00;6.82;;;5.30;;
21089;SDS011;10703;51.020;6.128;2023-04-19T10:04:29;8.55;;;5.70;;
21089;SDS011;10703;51.020;6.128;2023-04-19T10:07:17;8.75;;;5.20;;
21089;SDS011;10703;51.020;6.128;2023-04-19T10:09:56;7.20;;;4.97;;
21089;SDS011;10703;51.020;6.128;2023-04-19T10:12:41;8.75;;;5.95;;
21089;SDS011;10703;51.020;6.128;2023-04-19T10:15:32;7.40;;;4.95;;
21089;SDS011;10703;51.020;6.128;2023-04-19T10:18:04;9.85;;;4.85;;
21089;SDS011;10703;51.020;6.128;2023-04-19T10:20:33;8.18;;;5.57;;
21089;SDS011;10703;51.020;6.128;2023-04-19T10:23:05;5.18;;;4.68;;
21089;SDS011;10703;51.020;6.128;2023-04-19T10:25:35;7.50;;;4.80;;
21089;SDS011;10703;51.020;6.128;2023-04-19T10:28:03;10.73;;;5.20;;
21089;SDS011;10703;51.020;6.128;2023-04-19T10:30:30;6.03;;;4.60;;
21089;SDS011;10703;51.020;6.128;2023-04-19T10:32:57;8.40;;;5.05;;
21089;SDS011;10703;51.020;6.128;2023-04-19T10:35:26;8.55;;;4.68;;
21089;SDS011;10703;51.020;6.128;2023-04-19T10:43:23;10.00;;;4.70;;
21089;SDS011;10703;51.020;6.128;2023-04-19T10:45:57;9.40;;;4.68;;
21089;SDS011;10703;51.020;6.128;2023-04-19T10:48:59;7.25;;;4.55;;
21089;SDS011;10703;51.020;6.128;2023-04-19T10:54:01;8.77;;;4.75;;
21089;SDS011;10703;51.020;6.128;2023-04-19T11:04:22;7.70;;;4.40;;
21089;SDS011;10703;51.020;6.128;2023-04-19T11:07:09;4.95;;;4.35;;
21089;SDS011;10703;51.020;6.128;2023-04-19T11:09:42;6.18;;;4.28;;
21089;SDS011;10703;51.020;6.128;2023-04-19T11:12:11;5.38;;;4.25;;
21089;SDS011;10703;51.020;6.128;2023-04-19T11:14:42;6.18;;;4.35;;
21089;SDS011;10703;51.020;6.128;2023-04-19T11:17:26;7.28;;;4.00;;
21089;SDS011;10703;51.020;6.128;2023-04-19T11:19:58;6.03;;;3.72;;
21089;SDS011;10703;51.020;6.128;2023-04-19T11:22:35;9.20;;;4.43;;
21089;SDS011;10703;51.020;6.128;2023-04-19T11:25:14;5.35;;;3.85;;
21089;SDS011;10703;51.020;6.128;2023-04-19T11:27:44;7.15;;;3.80;;
21089;SDS011;10703;51.020;6.128;2023-04-19T11:30:15;7.97;;;3.80;;
21089;SDS011;10703;51.020;6.128;2023-04-19T11:32:51;4.30;;;3.47;;
21089;SDS011;10703;51.020;6.128;2023-04-19T11:35:23;3.55;;;3.30;;
21089;SDS011;10703;51.020;6.128;2023-04-19T11:37:51;4.10;;;3.60;;
21089;SDS011;10703;51.020;6.128;2023-04-19T11:40:19;8.60;;;3.20;;
21089;SDS011;10703;51.020;6.128;2023-04-19T11:42:52;4.55;;;3.50;;
21089;SDS011;10703;51.020;6.128;2023-04-19T11:45:24;5.13;;;3.30;;
21089;SDS011;10703;51.020;6.128;2023-04-19T11:47:58;5.05;;;3.40;;
21089;SDS011;10703;51.020;6.128;2023-04-19T11:53:09;3.25;;;2.97;;
21089;SDS011;10703;51.020;6.128;2023-04-19T11:55:51;5.47;;;3.17;;
21089;SDS011;10703;51.020;6.128;2023-04-19T11:58:37;4.93;;;3.00;;
21089;SDS011;10703;51.020;6.128;2023-04-19T12:01:16;11.50;;;3.15;;
21089;SDS011;10703;51.020;6.128;2023-04-19T12:03:51;6.30;;;3.20;;
21089;SDS011;10703;51.020;6.128;2023-04-19T12:06:23;3.97;;;2.92;;
21089;SDS011;10703;51.020;6.128;2023-04-19T12:08:52;7.65;;;3.33;;
21089;SDS011;10703;51.020;6.128;2023-04-19T12:11:23;6.82;;;3.38;;
21089;SDS011;10703;51.020;6.128;2023-04-19T12:16:37;6.25;;;3.28;;
21089;SDS011;10703;51.020;6.128;2023-04-19T12:19:11;5.00;;;3.25;;
21089;SDS011;10703;51.020;6.128;2023-04-19T12:21:39;11.32;;;3.65;;
21089;SDS011;10703;51.020;6.128;2023-04-19T12:24:06;4.60;;;3.40;;
21089;SDS011;10703;51.020;6.128;2023-04-19T12:26:33;6.07;;;3.40;;
21089;SDS011;10703;51.020;6.128;2023-04-19T12:29:01;5.93;;;3.53;;
21089;SDS011;10703;51.020;6.128;2023-04-19T12:31:31;4.40;;;3.70;;
21089;SDS011;10703;51.020;6.128;2023-04-19T12:33:58;5.85;;;3.35;;
21089;SDS011;10703;51.020;6.128;2023-04-19T12:36:25;5.38;;;3.72;;
21089;SDS011;10703;51.020;6.128;2023-04-19T12:38:51;9.95;;;3.35;;
21089;SDS011;10703;51.020;6.128;2023-04-19T12:41:18;6.95;;;3.50;;
21089;SDS011;10703;51.020;6.128;2023-04-19T12:43:44;7.72;;;3.80;;
21089;SDS011;10703;51.020;6.128;2023-04-19T12:46:11;4.03;;;3.65;;
21089;SDS011;10703;51.020;6.128;2023-04-19T12:48:37;5.93;;;3.88;;
21089;SDS011;10703;51.020;6.128;2023-04-19T12:51:04;4.40;;;3.83;;
21089;SDS011;10703;51.020;6.128;2023-04-19T12:53:31;6.10;;;3.83;;
21089;SDS011;10703;51.020;6.128;2023-04-19T12:55:58;4.95;;;3.90;;
21089;SDS011;10703;51.020;6.128;2023-04-19T12:58:25;7.03;;;3.95;;
21089;SDS011;10703;51.020;6.128;2023-04-19T13:00:53;8.10;;;3.90;;
21089;SDS011;10703;51.020;6.128;2023-04-19T13:03:20;8.30;;;4.20;;
21089;SDS011;10703;51.020;6.128;2023-04-19T13:05:47;7.93;;;4.20;;
21089;SDS011;10703;51.020;6.128;2023-04-19T13:08:14;4.82;;;4.38;;
21089;SDS011;10703;51.020;6.128;2023-04-19T13:10:40;5.80;;;4.25;;
21089;SDS011;10703;51.020;6.128;2023-04-19T13:13:07;4.60;;;3.88;;
21089;SDS011;10703;51.020;6.128;2023-04-19T13:15:34;6.85;;;3.85;;
21089;SDS011;10703;51.020;6.128;2023-04-19T13:18:00;4.60;;;3.80;;
21089;SDS011;10703;51.020;6.128;2023-04-19T13:20:27;5.28;;;3.88;;
21089;SDS011;10703;51.020;6.128;2023-04-19T13:22:54;5.75;;;3.97;;
21089;SDS011;10703;51.020;6.128;2023-04-19T13:25:20;8.45;;;3.85;;
21089;SDS011;10703;51.020;6.128;2023-04-19T13:27:47;6.38;;;3.95;;
21089;SDS011;10703;51.020;6.128;2023-04-19T13:30:14;3.92;;;3.63;;
21089;SDS011;10703;51.020;6.128;2023-04-19T13:32:40;4.53;;;3.88;;
21089;SDS011;10703;51.020;6.128;2023-04-19T13:35:07;9.90;;;3.65;;
21089;SDS011;10703;51.020;6.128;2023-04-19T13:37:34;4.43;;;3.45;;
21089;SDS011;10703;51.020;6.128;2023-04-19T13:40:01;7.60;;;4.00;;
21089;SDS011;10703;51.020;6.128;2023-04-19T13:42:46;3.97;;;3.60;;
21089;SDS011;10703;51.020;6.128;2023-04-19T13:45:12;5.50;;;3.72;;
21089;SDS011;10703;51.020;6.128;2023-04-19T13:47:39;8.43;;;4.20;;
21089;SDS011;10703;51.020;6.128;2023-04-19T13:50:06;5.05;;;3.70;;
21089;SDS011;10703;51.020;6.128;2023-04-19T13:52:33;4.30;;;3.80;;
21089;SDS011;10703;51.020;6.128;2023-04-19T13:54:59;9.10;;;4.32;;
21089;SDS011;10703;51.020;6.128;2023-04-19T13:57:26;8.48;;;4.50;;
21089;SDS011;10703;51.020;6.128;2023-04-19T13:59:52;5.85;;;4.50;;
21089;SDS011;10703;51.020;6.128;2023-04-19T14:02:19;8.45;;;4.60;;
21089;SDS011;10703;51.020;6.128;2023-04-19T14:04:46;10.20;;;4.10;;
21089;SDS011;10703;51.020;6.128;2023-04-19T14:07:13;5.97;;;4.22;;
21089;SDS011;10703;51.020;6.128;2023-04-19T14:09:39;6.32;;;4.50;;
21089;SDS011;10703;51.020;6.128;2023-04-19T14:12:07;4.80;;;4.40;;
21089;SDS011;10703;51.020;6.128;2023-04-19T14:14:34;8.80;;;4.78;;
21089;SDS011;10703;51.020;6.128;2023-04-19T14:17:00;6.45;;;4.50;;
21089;SDS011;10703;51.020;6.128;2023-04-19T14:19:27;9.73;;;4.70;;
21089;SDS011;10703;51.020;6.128;2023-04-19T14:21:54;10.23;;;4.88;;
21089;SDS011;10703;51.020;6.128;2023-04-19T14:24:20;6.03;;;4.63;;
21089;SDS011;10703;51.020;6.128;2023-04-19T14:26:47;5.72;;;4.63;;
21089;SDS011;10703;51.020;6.128;2023-04-19T14:29:32;7.85;;;4.53;;
21089;SDS011;10703;51.020;6.128;2023-04-19T14:31:58;10.07;;;4.72;;
21089;SDS011;10703;51.020;6.128;2023-04-19T14:34:42;6.28;;;4.90;;
21089;SDS011;10703;51.020;6.128;2023-04-19T14:37:08;10.65;;;5.55;;
21089;SDS011;10703;51.020;6.128;2023-04-19T14:39:35;6.10;;;5.35;;
21089;SDS011;10703;51.020;6.128;2023-04-19T14:42:02;6.93;;;5.13;;
21089;SDS011;10703;51.020;6.128;2023-04-19T14:44:28;7.05;;;5.22;;
21089;SDS011;10703;51.020;6.128;2023-04-19T14:46:55;6.25;;;4.70;;
21089;SDS011;10703;51.020;6.128;2023-04-19T14:49:22;9.13;;;4.80;;
21089;SDS011;10703;51.020;6.128;2023-04-19T14:51:48;6.22;;;5.30;;
21089;SDS011;10703;51.020;6.128;2023-04-19T14:54:17;5.80;;;5.30;;
21089;SDS011;10703;51.020;6.128;2023-04-19T14:56:43;7.53;;;5.35;;
21089;SDS011;10703;51.020;6.128;2023-04-19T14:59:10;6.80;;;5.13;;
21089;SDS011;10703;51.020;6.128;2023-04-19T15:01:37;9.23;;;5.10;;